createdAt,value
2018-05-17T00:02:08.810Z,9.27
2018-05-17T00:04:37.334Z,10.20
2018-05-17T00:07:04.894Z,9.40
2018-05-17T00:09:32.428Z,9.67
2018-05-17T00:12:00.013Z,10.87
2018-05-17T00:14:27.583Z,9.53
2018-05-17T00:16:55.155Z,9.73
2018-05-17T00:19:22.729Z,9.10
2018-05-17T00:21:50.261Z,8.60
2018-05-17T00:24:17.828Z,9.10
2018-05-17T00:26:45.369Z,7.93
2018-05-17T00:29:13.880Z,7.37
2018-05-17T00:31:43.393Z,8.03
2018-05-17T00:34:11.684Z,8.93
2018-05-17T00:36:40.017Z,8.70
2018-05-17T00:39:07.545Z,8.00
2018-05-17T00:41:35.111Z,7.83
2018-05-17T00:44:02.650Z,7.43
2018-05-17T00:46:30.202Z,7.93
2018-05-17T00:48:59.701Z,7.83
2018-05-17T00:51:27.222Z,7.10
2018-05-17T00:53:54.779Z,7.70
2018-05-17T00:56:22.301Z,7.63
2018-05-17T00:58:49.856Z,7.00
2018-05-17T01:01:17.381Z,6.80
2018-05-17T01:03:44.937Z,7.20
2018-05-17T01:06:12.458Z,6.63
2018-05-17T01:08:40.076Z,6.63
2018-05-17T01:11:07.638Z,6.70
2018-05-17T01:13:35.173Z,7.13
2018-05-17T01:16:02.733Z,6.60
2018-05-17T01:18:31.017Z,6.37
2018-05-17T01:20:58.569Z,6.50
2018-05-17T01:23:26.090Z,6.30
2018-05-17T01:25:53.634Z,6.60
2018-05-17T01:28:21.186Z,6.40
2018-05-17T01:30:48.960Z,7.20
2018-05-17T01:33:16.504Z,7.00
2018-05-17T01:35:44.025Z,6.17
2018-05-17T01:38:25.473Z,5.90
2018-05-17T01:40:53.986Z,6.57
2018-05-17T01:43:21.545Z,6.60
2018-05-17T01:45:49.845Z,6.43
2018-05-17T01:48:18.147Z,6.00
2018-05-17T01:50:45.695Z,6.27
2018-05-17T01:53:14.172Z,6.90
2018-05-17T01:55:41.732Z,6.60
2018-05-17T01:58:09.276Z,7.00
2018-05-17T02:00:37.788Z,6.40
2018-05-17T02:03:05.363Z,7.37
2018-05-17T02:05:32.909Z,7.30
2018-05-17T02:08:02.401Z,7.80
2018-05-17T02:10:29.961Z,6.87
2018-05-17T02:12:59.444Z,7.47
2018-05-17T02:15:26.964Z,7.07
2018-05-17T02:17:54.522Z,6.83
2018-05-17T02:20:22.053Z,7.73
2018-05-17T02:22:49.605Z,7.73
2018-05-17T02:25:17.165Z,7.50
2018-05-17T02:27:44.700Z,7.07
2018-05-17T02:30:12.253Z,7.87
2018-05-17T02:32:40.586Z,8.70
2018-05-17T02:35:08.115Z,8.73
2018-05-17T02:37:35.675Z,8.83
2018-05-17T02:40:03.250Z,9.20
2018-05-17T02:42:30.773Z,8.57
2018-05-17T02:44:59.094Z,7.90
2018-05-17T02:47:26.626Z,8.77
2018-05-17T02:49:54.187Z,9.60
2018-05-17T02:52:21.717Z,9.80
2018-05-17T02:54:49.270Z,10.93
2018-05-17T02:57:16.805Z,12.57
2018-05-17T02:59:44.336Z,10.83
2018-05-17T03:02:11.909Z,9.30
2018-05-17T03:04:39.451Z,7.60
2018-05-17T03:07:07.011Z,7.30
2018-05-17T03:09:34.555Z,8.07
2018-05-17T03:12:02.106Z,7.37
2018-05-17T03:14:29.655Z,8.43
2018-05-17T03:16:57.189Z,8.53
2018-05-17T03:19:24.741Z,7.93
2018-05-17T03:21:52.270Z,8.07
2018-05-17T03:24:19.823Z,8.30
2018-05-17T03:26:47.351Z,8.10
2018-05-17T03:29:15.639Z,7.80
2018-05-17T03:31:43.189Z,8.40
2018-05-17T03:34:10.715Z,8.40
2018-05-17T03:36:38.275Z,7.87
2018-05-17T03:39:06.597Z,7.60
2018-05-17T03:41:34.121Z,8.77
2018-05-17T03:44:02.421Z,8.27
2018-05-17T03:46:30.075Z,7.87
2018-05-17T03:48:57.537Z,8.03
2018-05-17T03:51:25.093Z,8.67
2018-05-17T03:53:53.386Z,8.50
2018-05-17T03:56:20.909Z,8.38
2018-05-17T03:58:51.194Z,8.20
2018-05-17T04:01:30.481Z,8.67
2018-05-17T04:04:12.747Z,8.47
2018-05-17T04:06:41.101Z,8.77
2018-05-17T04:09:08.761Z,8.67
2018-05-17T04:11:36.324Z,10.17
2018-05-17T04:14:03.946Z,10.43
2018-05-17T04:16:32.281Z,9.83
2018-05-17T04:18:59.852Z,11.30
2018-05-17T04:21:28.149Z,11.33
2018-05-17T04:23:55.719Z,12.77
2018-05-17T04:26:23.261Z,15.50
2018-05-17T04:28:52.548Z,12.90
2018-05-17T04:31:20.105Z,11.70
2018-05-17T04:33:47.684Z,12.87
2018-05-17T04:36:15.231Z,12.03
2018-05-17T04:38:42.766Z,12.50
2018-05-17T04:41:10.325Z,12.07
2018-05-17T04:43:37.855Z,13.50
2018-05-17T04:46:05.408Z,13.30
2018-05-17T04:48:32.936Z,13.37
2018-05-17T04:51:01.278Z,11.43
2018-05-17T04:53:30.789Z,12.00
2018-05-17T04:55:58.323Z,11.50
2018-05-17T04:58:25.879Z,10.07
2018-05-17T05:00:54.216Z,9.00
2018-05-17T05:03:24.461Z,8.63
2018-05-17T05:05:51.993Z,9.20
2018-05-17T05:08:21.490Z,9.00
2018-05-17T05:10:49.962Z,9.00
2018-05-17T05:13:17.513Z,8.50
2018-05-17T05:15:45.041Z,8.10
2018-05-17T05:18:12.573Z,8.40
2018-05-17T05:20:40.910Z,7.43
2018-05-17T05:23:09.385Z,7.63
2018-05-17T05:25:36.948Z,8.53
2018-05-17T05:28:04.476Z,7.10
2018-05-17T05:30:32.025Z,6.63
2018-05-17T05:32:59.545Z,7.23
2018-05-17T05:35:27.065Z,6.47
2018-05-17T05:37:54.618Z,7.60
2018-05-17T05:40:23.080Z,7.20
2018-05-17T05:42:50.639Z,7.50
2018-05-17T05:45:18.190Z,8.67
2018-05-17T05:47:45.717Z,9.00
2018-05-17T05:50:16.006Z,10.20
2018-05-17T05:52:43.573Z,11.53
2018-05-17T05:55:11.122Z,13.13
2018-05-17T05:57:38.656Z,12.10
2018-05-17T06:00:06.219Z,14.00
2018-05-17T06:02:33.745Z,13.83
2018-05-17T06:05:01.313Z,13.90
2018-05-17T06:07:29.617Z,13.77
2018-05-17T06:09:59.105Z,15.40
2018-05-17T06:12:26.634Z,14.97
2018-05-17T06:14:54.160Z,14.67
2018-05-17T06:17:23.665Z,14.67
2018-05-17T06:19:52.162Z,16.83
2018-05-17T06:22:19.719Z,18.70
2018-05-17T06:24:47.549Z,18.30
2018-05-17T06:27:15.112Z,20.00
2018-05-17T06:29:43.749Z,22.80
2018-05-17T06:32:11.337Z,24.47
2018-05-17T06:34:38.882Z,30.03
2018-05-17T06:37:07.010Z,29.43
2018-05-17T06:39:34.613Z,26.20
2018-05-17T06:42:03.312Z,26.50
2018-05-17T06:44:30.875Z,29.30
2018-05-17T06:46:58.426Z,27.27
2018-05-17T06:49:25.973Z,28.93
2018-05-17T06:51:54.336Z,27.90
2018-05-17T06:54:21.923Z,28.57
2018-05-17T06:56:49.478Z,27.70
2018-05-17T06:59:17.783Z,28.60
2018-05-17T07:01:45.359Z,27.37
2018-05-17T07:04:12.905Z,26.90
2018-05-17T07:06:42.426Z,31.73
2018-05-17T07:09:09.966Z,28.73
2018-05-17T07:11:37.564Z,29.90
2018-05-17T07:14:06.076Z,27.20
2018-05-17T07:16:33.635Z,27.17
2018-05-17T07:19:01.986Z,31.60
2018-05-17T07:21:30.125Z,30.67
2018-05-17T07:23:57.713Z,29.60
2018-05-17T07:26:25.237Z,30.60
2018-05-17T07:28:52.772Z,29.90
2018-05-17T07:31:20.402Z,31.00
2018-05-17T07:33:48.717Z,31.17
2018-05-17T07:36:16.297Z,29.00
2018-05-17T07:38:43.844Z,28.57
2018-05-17T07:41:11.425Z,29.83
2018-05-17T07:43:38.994Z,29.30
2018-05-17T07:46:06.528Z,28.80
2018-05-17T07:48:35.182Z,28.83
2018-05-17T07:51:03.553Z,30.80
2018-05-17T07:53:31.149Z,27.93
2018-05-17T07:55:58.704Z,28.60
2018-05-17T07:58:26.298Z,28.30
2018-05-17T08:00:53.864Z,27.80
2018-05-17T08:03:21.441Z,29.37
2018-05-17T08:05:49.010Z,26.33
2018-05-17T08:08:17.347Z,27.60
2018-05-17T08:10:44.893Z,26.33
2018-05-17T08:13:12.476Z,25.70
2018-05-17T08:15:40.051Z,25.13
2018-05-17T08:18:07.658Z,26.00
2018-05-17T08:20:35.223Z,25.37
2018-05-17T08:23:02.777Z,26.20
2018-05-17T08:25:30.324Z,25.00
2018-05-17T08:27:57.869Z,23.50
2018-05-17T08:30:28.145Z,21.57
2018-05-17T08:32:55.684Z,22.20
2018-05-17T08:35:24.261Z,23.90
2018-05-17T08:37:51.800Z,21.80
2018-05-17T08:40:19.370Z,18.93
2018-05-17T08:42:46.954Z,17.93
2018-05-17T08:45:14.502Z,17.67
2018-05-17T08:47:42.056Z,18.60
2018-05-17T08:50:09.718Z,19.40
2018-05-17T08:52:37.342Z,19.43
2018-05-17T08:55:04.884Z,16.80
2018-05-17T08:57:32.437Z,16.33
2018-05-17T09:00:00.017Z,15.23
2018-05-17T09:02:27.595Z,15.63
2018-05-17T09:04:55.161Z,15.40
2018-05-17T09:07:22.709Z,15.37
2018-05-17T09:09:50.269Z,14.70
2018-05-17T09:12:18.569Z,13.93
2018-05-17T09:14:46.129Z,14.17
2018-05-17T09:17:15.620Z,14.97
2018-05-17T09:19:43.190Z,13.60
2018-05-17T09:22:10.753Z,14.40
2018-05-17T09:24:38.320Z,13.37
2018-05-17T09:27:06.814Z,14.83
2018-05-17T09:29:34.370Z,13.57
2018-05-17T09:32:01.933Z,15.10
2018-05-17T09:34:29.494Z,13.63
2018-05-17T09:37:03.180Z,13.97
2018-05-17T09:39:35.859Z,14.33
2018-05-17T09:42:05.348Z,12.43
2018-05-17T09:44:32.897Z,13.17
2018-05-17T09:47:00.785Z,12.47
2018-05-17T09:49:28.324Z,12.10
2018-05-17T09:51:56.875Z,16.73
2018-05-17T09:54:26.025Z,15.40
2018-05-17T09:56:53.567Z,14.80
2018-05-17T09:59:21.132Z,14.00
2018-05-17T10:01:48.702Z,16.17
2018-05-17T10:04:16.269Z,17.63
2018-05-17T10:06:43.820Z,18.10
2018-05-17T10:09:11.405Z,18.00
2018-05-17T10:11:38.937Z,15.83
2018-05-17T10:14:06.498Z,16.30
2018-05-17T10:16:34.088Z,16.63
2018-05-17T10:19:01.680Z,15.90
2018-05-17T10:21:29.222Z,18.37
2018-05-17T10:23:56.805Z,16.83
2018-05-17T10:26:24.368Z,16.90
2018-05-17T10:28:51.938Z,21.00
2018-05-17T10:31:20.428Z,15.50
2018-05-17T10:33:47.989Z,15.77
2018-05-17T10:36:16.331Z,15.50
2018-05-17T10:38:43.859Z,14.53
2018-05-17T10:41:11.436Z,14.73
2018-05-17T10:43:39.001Z,14.60
2018-05-17T10:46:07.561Z,16.23
2018-05-17T10:48:35.104Z,14.57
2018-05-17T10:51:02.713Z,15.50
2018-05-17T10:53:31.005Z,14.37
2018-05-17T10:55:58.546Z,13.13
2018-05-17T10:58:28.069Z,12.17
2018-05-17T11:00:56.565Z,13.50
2018-05-17T11:03:24.121Z,13.47
2018-05-17T11:05:51.649Z,12.70
2018-05-17T11:08:21.921Z,12.70
2018-05-17T11:10:49.449Z,11.93
2018-05-17T11:13:17.013Z,12.83
2018-05-17T11:15:44.580Z,11.97
2018-05-17T11:18:14.095Z,12.43
2018-05-17T11:20:41.622Z,10.97
2018-05-17T11:23:10.926Z,10.33
2018-05-17T11:25:38.465Z,10.40
2018-05-17T11:28:06.793Z,11.53
2018-05-17T11:30:34.399Z,9.50
2018-05-17T11:33:02.009Z,9.67
2018-05-17T11:35:29.543Z,10.83
2018-05-17T11:37:57.085Z,11.10
2018-05-17T11:40:26.471Z,12.37
2018-05-17T11:42:54.775Z,9.43
2018-05-17T11:45:22.340Z,11.27
2018-05-17T11:47:49.869Z,9.20
2018-05-17T11:50:17.427Z,9.47
2018-05-17T11:52:45.753Z,9.40
2018-05-17T11:55:13.278Z,9.37
2018-05-17T11:57:42.773Z,10.37
2018-05-17T12:00:10.311Z,9.63
2018-05-17T12:02:37.898Z,9.47
2018-05-17T12:05:05.963Z,8.80
2018-05-17T12:07:33.497Z,10.50
2018-05-17T12:10:01.871Z,12.30
2018-05-17T12:12:29.401Z,8.90
2018-05-17T12:14:56.951Z,9.10
2018-05-17T12:17:24.476Z,8.03
2018-05-17T12:19:52.793Z,8.70
2018-05-17T12:22:20.313Z,9.63
2018-05-17T12:24:47.865Z,8.93
2018-05-17T12:27:15.421Z,8.03
2018-05-17T12:29:42.944Z,8.13
2018-05-17T12:32:10.511Z,8.57
2018-05-17T12:34:38.055Z,9.67
2018-05-17T12:37:05.621Z,10.33
2018-05-17T12:39:35.133Z,7.87
2018-05-17T12:42:02.693Z,8.93
2018-05-17T12:44:30.289Z,8.50
2018-05-17T12:47:00.436Z,9.17
2018-05-17T12:49:27.991Z,8.40
2018-05-17T12:51:55.537Z,9.20
2018-05-17T12:54:23.120Z,11.47
2018-05-17T12:56:50.839Z,10.60
2018-05-17T12:59:19.106Z,11.10
2018-05-17T13:01:46.654Z,11.33
2018-05-17T13:04:14.240Z,11.93
2018-05-17T13:06:42.547Z,11.90
2018-05-17T13:09:10.125Z,11.40
2018-05-17T13:11:37.674Z,12.47
2018-05-17T13:14:05.229Z,12.33
2018-05-17T13:16:32.841Z,12.60
2018-05-17T13:19:01.160Z,13.80
2018-05-17T13:21:28.713Z,13.90
2018-05-17T13:23:57.011Z,13.43
2018-05-17T13:26:24.579Z,12.93
2018-05-17T13:28:52.131Z,13.67
2018-05-17T13:31:19.693Z,14.70
2018-05-17T13:33:47.268Z,13.97
2018-05-17T13:36:14.797Z,15.40
2018-05-17T13:38:43.703Z,21.17
2018-05-17T13:41:11.237Z,20.57
2018-05-17T13:43:38.799Z,22.20
2018-05-17T13:46:06.358Z,18.93
2018-05-17T13:48:33.952Z,24.13
2018-05-17T13:51:01.496Z,26.20
2018-05-17T13:53:29.058Z,23.50
2018-05-17T13:55:56.605Z,21.97
2018-05-17T13:58:24.167Z,25.90
2018-05-17T14:00:51.723Z,26.90
2018-05-17T14:03:19.281Z,27.53
2018-05-17T14:05:46.959Z,26.80
2018-05-17T14:08:14.485Z,24.43
2018-05-17T14:10:42.050Z,24.40
2018-05-17T14:13:09.578Z,25.77
2018-05-17T14:15:37.149Z,24.50
2018-05-17T14:18:05.460Z,25.53
2018-05-17T14:20:33.019Z,26.00
2018-05-17T14:23:00.551Z,23.97
2018-05-17T14:25:28.101Z,24.03
2018-05-17T14:27:56.428Z,24.63
2018-05-17T14:30:23.969Z,25.10
2018-05-17T14:32:51.561Z,24.33
2018-05-17T14:35:19.101Z,23.70
2018-05-17T14:37:46.658Z,23.73
2018-05-17T14:40:14.193Z,26.93
2018-05-17T14:42:42.521Z,25.70
2018-05-17T14:45:10.081Z,21.80
2018-05-17T14:47:37.624Z,23.10
2018-05-17T14:50:07.149Z,21.80
2018-05-17T14:52:34.859Z,21.87
2018-05-17T14:55:02.420Z,20.30
2018-05-17T14:57:29.973Z,22.80
2018-05-17T14:59:58.302Z,17.00
2018-05-17T15:02:25.900Z,18.60
2018-05-17T15:04:54.232Z,15.97
2018-05-17T15:07:21.768Z,15.97
2018-05-17T15:09:50.283Z,15.03
2018-05-17T15:12:18.390Z,15.47
2018-05-17T15:14:45.893Z,14.77
2018-05-17T15:17:15.353Z,16.40
2018-05-17T15:19:42.979Z,16.83
2018-05-17T15:22:11.499Z,18.43
2018-05-17T15:24:39.885Z,17.40
2018-05-17T15:27:07.403Z,18.20
2018-05-17T15:29:34.997Z,18.50
2018-05-17T15:32:02.513Z,21.03
2018-05-17T15:34:32.032Z,19.27
2018-05-17T15:36:59.580Z,19.30
2018-05-17T15:39:27.168Z,20.43
2018-05-17T15:41:55.464Z,19.33
2018-05-17T15:44:23.025Z,18.33
2018-05-17T15:46:51.612Z,19.30
2018-05-17T15:49:21.126Z,18.30
2018-05-17T15:51:48.665Z,18.03
2018-05-17T15:54:18.223Z,18.80
2018-05-17T15:56:45.765Z,17.33
2018-05-17T15:59:13.330Z,17.80
2018-05-17T16:01:40.875Z,17.93
2018-05-17T16:04:09.371Z,19.30
2018-05-17T16:06:36.953Z,16.80
2018-05-17T16:09:06.145Z,16.83
2018-05-17T16:11:35.655Z,17.60
2018-05-17T16:14:03.194Z,18.20
2018-05-17T16:16:30.757Z,18.33
2018-05-17T16:18:58.286Z,18.70
2018-05-17T16:21:26.867Z,18.93
2018-05-17T16:23:54.431Z,19.03
2018-05-17T16:26:21.982Z,18.83
2018-05-17T16:28:49.567Z,18.03
2018-05-17T16:31:17.113Z,17.53
2018-05-17T16:33:47.321Z,18.27
2018-05-17T16:36:14.879Z,18.80
2018-05-17T16:38:42.433Z,20.17
2018-05-17T16:43:43.771Z,23.50
2018-05-17T16:46:11.502Z,21.23
2018-05-17T16:48:39.060Z,19.83
2018-05-17T16:51:06.615Z,21.70
2018-05-17T16:53:35.114Z,21.17
2018-05-17T16:56:04.177Z,20.40
2018-05-17T16:58:34.444Z,21.20
2018-05-17T17:01:03.300Z,21.97
2018-05-17T17:03:33.388Z,21.83
2018-05-17T17:06:02.191Z,21.80
2018-05-17T17:08:30.892Z,23.00
2018-05-17T17:10:59.079Z,21.70
2018-05-17T17:13:26.676Z,21.70
2018-05-17T17:15:54.237Z,21.73
2018-05-17T17:18:21.817Z,20.27
2018-05-17T17:20:49.345Z,21.13
2018-05-17T17:23:16.898Z,21.33
2018-05-17T17:25:44.431Z,21.10
2018-05-17T17:28:12.012Z,21.10
2018-05-17T17:30:40.310Z,21.63
2018-05-17T17:33:07.856Z,24.10
2018-05-17T17:35:35.447Z,23.83
2018-05-17T17:38:03.010Z,22.23
2018-05-17T17:40:37.954Z,21.10
2018-05-17T17:43:07.078Z,23.83
2018-05-17T17:45:35.332Z,21.95
2018-05-17T17:48:03.004Z,20.43
2018-05-17T17:50:30.571Z,21.10
2018-05-17T17:52:58.155Z,20.00
2018-05-17T17:55:25.888Z,21.23
2018-05-17T17:57:53.481Z,20.50
2018-05-17T18:00:21.032Z,20.57
2018-05-17T18:02:48.620Z,21.43
2018-05-17T18:05:16.987Z,21.10
2018-05-17T18:07:45.317Z,19.50
2018-05-17T18:10:13.602Z,21.25
2018-05-17T18:12:41.186Z,22.23
2018-05-17T18:15:08.756Z,21.83
2018-05-17T18:17:36.320Z,23.13
2018-05-17T18:20:04.661Z,22.83
2018-05-17T18:22:32.203Z,22.13
2018-05-17T18:24:59.830Z,22.77
2018-05-17T18:27:27.450Z,21.07
2018-05-17T18:29:55.031Z,20.67
2018-05-17T18:32:22.611Z,19.43
2018-05-17T18:34:50.909Z,19.70
2018-05-17T18:37:18.473Z,20.17
2018-05-17T18:39:46.040Z,19.57
2018-05-17T18:42:13.646Z,21.67
2018-05-17T18:44:41.213Z,22.17
2018-05-17T18:47:09.525Z,22.50
2018-05-17T18:49:37.492Z,20.43
2018-05-17T18:52:05.050Z,22.00
2018-05-17T18:54:32.689Z,21.63
2018-05-17T18:57:00.292Z,22.80
2018-05-17T18:59:28.553Z,22.87
2018-05-17T19:01:57.202Z,23.10
2018-05-17T19:04:24.721Z,21.60
2018-05-17T19:06:52.300Z,22.13
2018-05-17T19:09:19.864Z,22.97
2018-05-17T19:11:47.430Z,21.83
2018-05-17T19:14:15.803Z,22.20
2018-05-17T19:16:43.363Z,21.43
2018-05-17T19:19:11.746Z,21.90
2018-05-17T19:21:40.101Z,22.43
2018-05-17T19:24:07.666Z,21.23
2018-05-17T19:26:35.418Z,21.83
2018-05-17T19:29:02.957Z,23.10
2018-05-17T19:31:30.607Z,21.00
2018-05-17T19:34:00.126Z,22.77
2018-05-17T19:36:28.397Z,23.53
2018-05-17T19:38:55.979Z,21.77
2018-05-17T19:41:23.527Z,21.70
2018-05-17T19:43:51.091Z,23.60
2018-05-17T19:46:18.673Z,23.90
2018-05-17T19:48:46.293Z,22.57
2018-05-17T19:51:13.825Z,25.17
2018-05-17T19:53:41.368Z,25.70
2018-05-17T19:56:08.955Z,24.43
2018-05-17T19:58:36.489Z,24.93
2018-05-17T20:01:04.118Z,23.30
2018-05-17T20:03:31.703Z,22.93
2018-05-17T20:05:59.238Z,24.10
2018-05-17T20:08:27.762Z,25.70
2018-05-17T20:10:56.113Z,24.03
2018-05-17T20:13:24.428Z,23.73
2018-05-17T20:15:52.117Z,23.80
2018-05-17T20:18:19.679Z,20.80
2018-05-17T20:20:47.752Z,20.70
2018-05-17T20:23:15.496Z,23.10
2018-05-17T20:25:43.994Z,23.60
2018-05-17T20:28:13.238Z,22.50
2018-05-17T20:30:41.042Z,20.77
2018-05-17T20:33:08.593Z,21.33
2018-05-17T20:35:36.185Z,19.00
2018-05-17T20:38:06.497Z,19.10
2018-05-17T20:40:36.039Z,20.83
2018-05-17T20:43:03.580Z,20.47
2018-05-17T20:45:31.171Z,20.77
2018-05-17T20:47:59.474Z,21.00
2018-05-17T20:50:27.041Z,20.70
2018-05-17T20:52:54.620Z,22.07
2018-05-17T20:55:23.103Z,21.80
2018-05-17T20:57:50.663Z,21.97
2018-05-17T21:00:18.189Z,21.97
2018-05-17T21:02:45.749Z,22.57
2018-05-17T21:05:14.264Z,22.40
2018-05-17T21:07:41.834Z,20.23
2018-05-17T21:10:10.348Z,20.13
2018-05-17T21:12:37.921Z,18.00
2018-05-17T21:15:07.195Z,18.93
2018-05-17T21:17:34.758Z,17.60
2018-05-17T21:20:02.312Z,17.63
2018-05-17T21:22:30.615Z,17.47
2018-05-17T21:24:58.188Z,18.10
2018-05-17T21:27:26.766Z,20.03
2018-05-17T21:29:54.355Z,18.60
2018-05-17T21:32:22.135Z,21.02
2018-05-17T21:34:49.681Z,21.33
2018-05-17T21:37:17.245Z,20.67
2018-05-17T21:39:44.800Z,19.67
2018-05-17T21:42:12.540Z,20.30
2018-05-17T21:44:40.085Z,20.47
2018-05-17T21:47:07.680Z,20.40
2018-05-17T21:49:36.351Z,22.03
2018-05-17T21:52:03.961Z,20.37
2018-05-17T21:54:31.518Z,21.20
2018-05-17T21:56:59.084Z,21.97
2018-05-17T21:59:27.512Z,19.77
2018-05-17T22:01:55.071Z,21.30
2018-05-17T22:04:22.625Z,20.73
2018-05-17T22:06:50.159Z,20.67
2018-05-17T22:09:17.849Z,20.20
2018-05-17T22:11:45.712Z,20.93
2018-05-17T22:14:13.467Z,18.83
2018-05-17T22:16:41.065Z,18.10
2018-05-17T22:19:08.636Z,17.87
2018-05-17T22:21:36.933Z,17.40
2018-05-17T22:24:04.466Z,19.20
2018-05-17T22:26:33.965Z,17.50
2018-05-17T22:29:01.505Z,18.90
2018-05-17T22:31:29.265Z,20.37
2018-05-17T22:33:56.833Z,17.53
2018-05-17T22:36:24.382Z,19.30
2018-05-17T22:38:51.929Z,19.00
2018-05-17T22:41:19.502Z,19.30
2018-05-17T22:43:47.048Z,20.20
2018-05-17T22:46:14.625Z,20.67
2018-05-17T22:48:42.164Z,25.53
2018-05-17T22:51:09.715Z,19.90
2018-05-17T22:53:38.255Z,22.50
2018-05-17T22:56:06.581Z,18.50
2018-05-17T22:58:34.140Z,20.67
2018-05-17T23:01:01.675Z,19.13
2018-05-17T23:03:30.010Z,20.23
2018-05-17T23:05:57.557Z,20.30
2018-05-17T23:08:25.092Z,19.83
2018-05-17T23:10:52.669Z,19.43
2018-05-17T23:13:21.180Z,18.70
2018-05-17T23:15:48.766Z,18.93
2018-05-17T23:18:18.041Z,19.43
2018-05-17T23:20:46.211Z,19.90
2018-05-17T23:23:14.086Z,19.77
2018-05-17T23:25:41.645Z,19.40
2018-05-17T23:28:09.954Z,18.83
2018-05-17T23:30:37.533Z,19.37
2018-05-17T23:33:05.117Z,19.73
2018-05-17T23:35:32.650Z,20.90
2018-05-17T23:38:00.184Z,20.90
2018-05-17T23:43:33.949Z,21.80
2018-05-17T23:46:01.509Z,21.30
2018-05-17T23:48:29.073Z,22.97
2018-05-17T23:50:56.607Z,20.70
2018-05-17T23:53:24.169Z,20.30
2018-05-17T23:55:51.697Z,21.57
2018-05-17T23:58:20.027Z,19.70
